Time;durP1;ratioP1;P1;durP2;ratioP2;P2;SDS_P1;SDS_P2;PMS_P1;PMS_P2;Temp;Humidity;BMP_temperature;BMP_pressure;BME280_temperature;BME280_humidity;BME280_pressure;Samples;Min_cycle;Max_cycle;Signal;HPM_P1;HPM_P2
2023/09/07 00:00:46;;;;;;;6.27;5.80;;;19.00;99.90;;;;;;6215716;23;20742;-63
2023/09/07 00:03:13;;;;;;;5.87;5.47;;;19.10;99.90;;;;;;6215955;23;20405;-63
2023/09/07 00:05:40;;;;;;;6.37;5.97;;;19.10;99.90;;;;;;6215894;23;20493;-63
2023/09/07 00:08:06;;;;;;;6.30;5.87;;;19.00;99.90;;;;;;6215816;23;20483;-63
2023/09/07 00:10:35;;;;;;;8.63;7.83;;;19.00;99.90;;;;;;6215813;23;20433;-63
2023/09/07 00:13:01;;;;;;;6.60;6.00;;;19.00;99.90;;;;;;6215842;23;20733;-63
2023/09/07 00:15:28;;;;;;;6.00;5.50;;;19.00;99.90;;;;;;6215705;23;20484;-63
2023/09/07 00:17:55;;;;;;;5.60;5.23;;;18.90;99.90;;;;;;6215739;23;20484;-63
2023/09/07 00:20:21;;;;;;;7.23;6.67;;;19.00;99.90;;;;;;6215672;23;20524;-63
2023/09/07 00:22:48;;;;;;;5.80;5.30;;;19.00;99.90;;;;;;6215670;23;20455;-63
2023/09/07 00:25:14;;;;;;;7.83;5.80;;;18.90;99.90;;;;;;6215358;23;20488;-63
2023/09/07 00:27:42;;;;;;;6.00;5.50;;;18.90;99.90;;;;;;6215443;23;20786;-63
2023/09/07 00:30:10;;;;;;;6.00;5.40;;;19.00;99.90;;;;;;6215745;23;20484;-63
2023/09/07 00:32:37;;;;;;;5.70;5.30;;;18.90;99.90;;;;;;6215634;23;20755;-63
2023/09/07 00:35:05;;;;;;;6.80;6.20;;;18.90;99.90;;;;;;6215663;23;20488;-62
2023/09/07 00:37:31;;;;;;;7.03;6.00;;;18.90;99.90;;;;;;6215641;23;20404;-63
2023/09/07 00:39:58;;;;;;;8.40;5.90;;;19.00;99.90;;;;;;6215527;23;20529;-63
2023/09/07 00:42:24;;;;;;;6.63;6.03;;;18.90;99.90;;;;;;6215599;23;20448;-63
2023/09/07 00:44:52;;;;;;;6.47;6.03;;;18.80;99.90;;;;;;6215296;23;20897;-63
2023/09/07 00:47:19;;;;;;;6.83;6.23;;;18.70;99.90;;;;;;6215612;23;20440;-63
2023/09/07 00:49:46;;;;;;;6.97;6.37;;;18.70;99.90;;;;;;6215566;23;20488;-63
2023/09/07 00:52:13;;;;;;;6.13;5.73;;;18.60;99.90;;;;;;6215301;23;20496;-63
2023/09/07 00:54:40;;;;;;;7.97;5.67;;;18.60;99.90;;;;;;6215297;23;20951;-63
2023/09/07 00:57:07;;;;;;;6.67;6.03;;;18.40;99.90;;;;;;6215574;23;20400;-63
2023/09/07 00:59:34;;;;;;;6.53;5.70;;;18.50;99.90;;;;;;6216805;23;20441;-63
2023/09/07 01:02:05;;;;;;;6.50;6.00;;;18.40;99.90;;;;;;6217576;23;20798;-62
2023/09/07 01:04:31;;;;;;;6.13;5.73;;;18.50;99.90;;;;;;6217524;23;20394;-63
2023/09/07 01:07:03;;;;;;;6.80;6.27;;;18.50;99.90;;;;;;6217420;23;20433;-63
2023/09/07 01:09:32;;;;;;;6.33;5.83;;;18.50;99.90;;;;;;6217485;23;20479;-63
2023/09/07 01:11:59;;;;;;;7.17;6.50;;;18.40;99.90;;;;;;6217352;23;20487;-63
2023/09/07 01:14:25;;;;;;;8.97;6.30;;;18.30;99.90;;;;;;6217353;23;20800;-63
2023/09/07 01:16:52;;;;;;;6.10;5.60;;;18.20;99.90;;;;;;6217445;23;20397;-62
2023/09/07 01:19:20;;;;;;;6.73;6.23;;;18.10;99.90;;;;;;6217150;23;20412;-63
2023/09/07 01:21:49;;;;;;;6.80;6.17;;;18.10;99.90;;;;;;6217361;23;20702;-63
2023/09/07 01:24:16;;;;;;;6.67;6.17;;;18.10;99.90;;;;;;6217286;23;20436;-63
2023/09/07 01:26:43;;;;;;;6.57;5.97;;;18.10;99.90;;;;;;6217279;23;20488;-63
2023/09/07 01:29:09;;;;;;;6.20;5.70;;;18.00;99.90;;;;;;6217211;23;20773;-63
2023/09/07 01:31:37;;;;;;;6.93;6.43;;;18.00;99.90;;;;;;6216803;23;20881;-63
2023/09/07 01:34:04;;;;;;;6.57;6.10;;;18.00;99.90;;;;;;6217114;23;20549;-62
2023/09/07 01:36:30;;;;;;;7.70;6.97;;;17.90;99.90;;;;;;6217155;23;20411;-63
2023/09/07 01:38:58;;;;;;;7.57;6.97;;;17.90;99.90;;;;;;6217141;23;20491;-63
2023/09/07 01:41:25;;;;;;;7.03;6.53;;;17.90;99.90;;;;;;6217026;23;21232;-63
2023/09/07 01:43:52;;;;;;;6.83;6.33;;;17.90;99.90;;;;;;6217082;23;20405;-63
2023/09/07 01:46:18;;;;;;;7.30;6.70;;;17.80;99.90;;;;;;6216997;23;20492;-63
2023/09/07 01:48:45;;;;;;;6.70;6.10;;;17.80;99.90;;;;;;6216976;23;20773;-63
2023/09/07 01:51:11;;;;;;;7.70;7.10;;;17.80;99.90;;;;;;6217013;23;20464;-63
2023/09/07 01:53:37;;;;;;;7.23;6.70;;;17.80;99.90;;;;;;6216554;23;20519;-63
2023/09/07 01:56:05;;;;;;;7.30;6.80;;;17.70;99.90;;;;;;6216609;23;20488;-63
2023/09/07 01:58:33;;;;;;;7.77;7.17;;;17.60;99.90;;;;;;6216994;23;20488;-62
2023/09/07 02:01:00;;;;;;;8.03;7.43;;;17.50;99.90;;;;;;6216808;23;20476;-62
2023/09/07 02:03:27;;;;;;;7.63;6.93;;;17.50;99.90;;;;;;6216858;23;20405;-63
2023/09/07 02:05:53;;;;;;;6.77;6.20;;;17.60;99.90;;;;;;6216952;23;20432;-62
2023/09/07 02:08:20;;;;;;;7.30;6.70;;;17.60;99.90;;;;;;6216815;23;20412;-63
2023/09/07 02:10:47;;;;;;;7.30;6.80;;;17.60;99.90;;;;;;6216357;23;20947;-63
2023/09/07 02:13:14;;;;;;;8.10;7.50;;;17.60;99.90;;;;;;6216903;23;20857;-63
2023/09/07 02:15:41;;;;;;;7.70;7.10;;;17.50;99.90;;;;;;6216861;23;20436;-62
2023/09/07 02:18:08;;;;;;;7.30;6.70;;;17.50;99.90;;;;;;6216787;23;20491;-62
2023/09/07 02:20:34;;;;;;;7.70;7.10;;;17.50;99.90;;;;;;6216581;23;20524;-63
2023/09/07 02:23:01;;;;;;;7.63;6.80;;;17.40;99.90;;;;;;6216679;23;20524;-62
2023/09/07 02:25:30;;;;;;;7.03;6.43;;;17.40;99.90;;;;;;6216646;23;20577;-62
2023/09/07 02:27:56;;;;;;;7.90;7.30;;;17.40;99.90;;;;;;6216603;23;20405;-63
2023/09/07 02:30:24;;;;;;;9.53;7.60;;;17.40;99.90;;;;;;6216617;23;20409;-63
2023/09/07 02:32:50;;;;;;;7.30;6.70;;;17.50;99.90;;;;;;6216655;23;20806;-63
2023/09/07 02:35:17;;;;;;;6.67;6.17;;;17.60;99.90;;;;;;6216599;23;20514;-63
2023/09/07 02:37:43;;;;;;;6.60;6.00;;;17.60;99.90;;;;;;6216697;23;20496;-62
2023/09/07 02:40:11;;;;;;;7.60;6.90;;;17.60;99.90;;;;;;6216507;23;20436;-63
2023/09/07 02:42:38;;;;;;;7.17;6.57;;;17.70;99.90;;;;;;6216656;23;20488;-63
2023/09/07 02:45:05;;;;;;;7.73;6.87;;;17.70;99.90;;;;;;6216503;23;20512;-63
2023/09/07 02:47:33;;;;;;;6.90;6.40;;;17.70;99.90;;;;;;6216610;23;20488;-62
2023/09/07 02:49:59;;;;;;;6.50;6.00;;;17.70;99.90;;;;;;6216463;23;20436;-63
2023/09/07 02:52:26;;;;;;;6.67;6.17;;;17.70;99.90;;;;;;6215865;23;20950;-62
2023/09/07 02:54:52;;;;;;;8.40;6.43;;;17.80;99.90;;;;;;6216046;23;20991;-63
2023/09/07 02:57:19;;;;;;;6.30;5.90;;;17.70;99.90;;;;;;6216482;23;20803;-63
2023/09/07 02:59:44;;;;;;;7.47;6.80;;;17.60;99.90;;;;;;6216280;23;20469;-63
2023/09/07 03:02:11;;;;;;;7.40;6.70;;;17.70;99.90;;;;;;6216401;23;20409;-62
2023/09/07 03:04:38;;;;;;;7.80;7.13;;;17.60;99.90;;;;;;6216324;23;20252;-62
2023/09/07 03:07:05;;;;;;;7.97;6.27;;;17.60;99.90;;;;;;6216324;23;20492;-62
2023/09/07 03:09:32;;;;;;;7.37;5.90;;;17.60;99.90;;;;;;6216181;23;20463;-63
2023/09/07 03:11:58;;;;;;;7.63;6.90;;;17.60;99.90;;;;;;6216240;23;20496;-62
2023/09/07 03:14:25;;;;;;;8.70;7.27;;;17.40;99.90;;;;;;6216235;23;20492;-63
2023/09/07 03:16:54;;;;;;;7.53;6.83;;;17.30;99.90;;;;;;6215912;23;20405;-62
2023/09/07 03:19:20;;;;;;;7.50;6.70;;;17.40;99.90;;;;;;6215832;23;20413;-62
2023/09/07 03:21:48;;;;;;;8.23;6.23;;;17.50;99.90;;;;;;6215207;23;20447;-62
2023/09/07 03:24:15;;;;;;;7.60;6.93;;;17.50;99.90;;;;;;6215284;23;20959;-62
2023/09/07 03:26:42;;;;;;;7.03;6.43;;;17.50;99.90;;;;;;6215748;23;20405;-63
2023/09/07 03:29:09;;;;;;;7.33;6.50;;;17.50;99.90;;;;;;6215687;23;20725;-63
2023/09/07 03:31:35;;;;;;;12.63;6.97;;;17.60;99.90;;;;;;6215676;23;20409;-62
2023/09/07 03:34:02;;;;;;;9.60;6.87;;;17.60;99.90;;;;;;6215719;23;20496;-62
2023/09/07 03:36:29;;;;;;;8.00;7.20;;;17.60;99.90;;;;;;6215691;23;20467;-62
2023/09/07 03:38:56;;;;;;;8.30;7.50;;;17.60;99.90;;;;;;6215755;23;20492;-62
2023/09/07 03:41:23;;;;;;;6.87;6.20;;;17.50;99.90;;;;;;6215864;23;20528;-63
2023/09/07 03:43:49;;;;;;;7.37;6.67;;;17.40;99.90;;;;;;6215967;23;20492;-62
2023/09/07 03:46:16;;;;;;;7.20;6.23;;;17.40;99.90;;;;;;6215992;23;20521;-62
2023/09/07 03:48:42;;;;;;;6.53;5.90;;;17.30;99.90;;;;;;6215907;23;20489;-62
2023/09/07 03:51:09;;;;;;;9.23;6.43;;;17.40;99.90;;;;;;6215898;23;20488;-63
2023/09/07 03:53:35;;;;;;;7.33;6.63;;;17.40;99.90;;;;;;6215301;23;20516;-63
2023/09/07 03:56:05;;;;;;;7.97;7.00;;;17.30;99.90;;;;;;6215774;23;20524;-63
2023/09/07 03:58:31;;;;;;;8.23;7.03;;;17.20;99.90;;;;;;6215847;23;20405;-63
2023/09/07 04:01:00;;;;;;;8.10;7.30;;;17.10;99.90;;;;;;6215678;23;20544;-62
2023/09/07 04:03:26;;;;;;;7.17;6.60;;;17.00;99.90;;;;;;6215782;23;20412;-62
2023/09/07 04:05:53;;;;;;;6.60;6.10;;;16.90;99.90;;;;;;6215817;23;20455;-62
2023/09/07 04:08:20;;;;;;;8.13;7.13;;;16.90;99.90;;;;;;6215719;23;20416;-63
2023/09/07 04:10:46;;;;;;;7.80;7.17;;;16.80;99.90;;;;;;6215343;23;20901;-62
2023/09/07 04:13:14;;;;;;;6.73;6.13;;;16.70;99.90;;;;;;6215833;23;20977;-62
2023/09/07 04:15:43;;;;;;;8.27;7.47;;;16.80;99.90;;;;;;6215743;23;20401;-62
2023/09/07 04:18:12;;;;;;;7.07;6.50;;;16.80;99.90;;;;;;6216012;23;20405;-62
2023/09/07 04:20:38;;;;;;;7.63;6.83;;;16.90;99.90;;;;;;6215478;23;20479;-62
2023/09/07 04:23:05;;;;;;;6.83;6.17;;;16.90;99.90;;;;;;6215757;23;20815;-63
2023/09/07 04:25:32;;;;;;;7.73;7.03;;;17.00;99.90;;;;;;6215651;23;20489;-62
2023/09/07 04:27:58;;;;;;;10.03;7.10;;;17.00;99.90;;;;;;6215698;23;20398;-62
2023/09/07 04:30:26;;;;;;;11.60;7.60;;;17.00;99.90;;;;;;6215334;23;20956;-62
2023/09/07 04:32:53;;;;;;;10.43;7.50;;;16.90;99.90;;;;;;6216343;23;20437;-63
2023/09/07 04:35:19;;;;;;;9.67;7.53;;;16.80;99.90;;;;;;6217581;23;20491;-62
2023/09/07 04:37:46;;;;;;;8.63;7.77;;;16.70;99.90;;;;;;6217531;23;20401;-62
2023/09/07 04:40:13;;;;;;;7.67;6.97;;;16.60;99.90;;;;;;6217252;23;20951;-62
2023/09/07 04:42:39;;;;;;;7.73;7.07;;;16.40;99.90;;;;;;6217523;23;20457;-62
2023/09/07 04:45:06;;;;;;;7.63;6.83;;;16.40;99.90;;;;;;6217604;23;20433;-62
2023/09/07 04:47:36;;;;;;;12.27;7.73;;;16.50;99.90;;;;;;6217632;23;20433;-62
2023/09/07 04:50:04;;;;;;;10.70;7.10;;;16.40;99.90;;;;;;6217524;23;20405;-63
2023/09/07 04:52:30;;;;;;;10.97;7.40;;;16.40;99.90;;;;;;6217235;23;20512;-62
2023/09/07 04:54:57;;;;;;;8.60;7.73;;;16.30;99.90;;;;;;6217526;23;20802;-62
2023/09/07 04:57:23;;;;;;;8.63;7.77;;;16.20;99.90;;;;;;6217507;23;20507;-62
2023/09/07 04:59:50;;;;;;;8.23;7.17;;;16.20;99.90;;;;;;6217480;23;20579;-62
2023/09/07 05:02:17;;;;;;;7.20;6.60;;;16.30;99.90;;;;;;6217368;23;20484;-63
2023/09/07 05:04:45;;;;;;;7.33;6.53;;;16.40;99.90;;;;;;6217137;23;20412;-62
2023/09/07 05:07:12;;;;;;;7.40;6.73;;;16.50;99.90;;;;;;6217376;23;20437;-62
2023/09/07 05:09:38;;;;;;;7.70;6.90;;;16.50;99.90;;;;;;6217315;23;20409;-62
2023/09/07 05:12:05;;;;;;;7.67;6.97;;;16.60;99.90;;;;;;6217433;23;20754;-62
2023/09/07 05:14:32;;;;;;;10.00;7.30;;;16.70;99.90;;;;;;6217335;23;20487;-63
2023/09/07 05:16:58;;;;;;;8.90;8.00;;;16.70;99.90;;;;;;6217276;23;20499;-63
2023/09/07 05:19:25;;;;;;;8.10;7.40;;;16.70;99.90;;;;;;6217221;23;20488;-63
2023/09/07 05:21:53;;;;;;;7.87;7.00;;;16.70;99.90;;;;;;6217178;23;20464;-62
2023/09/07 05:24:19;;;;;;;8.13;7.43;;;16.70;99.90;;;;;;6217155;23;20483;-62
2023/09/07 05:26:46;;;;;;;7.93;7.23;;;16.80;99.90;;;;;;6217140;23;20484;-62
2023/09/07 05:29:13;;;;;;;7.40;6.50;;;16.80;99.90;;;;;;6217084;23;20492;-62
2023/09/07 05:31:39;;;;;;;7.77;7.07;;;16.90;99.90;;;;;;6217050;23;20915;-63
2023/09/07 05:34:06;;;;;;;7.90;7.30;;;17.00;99.90;;;;;;6217110;23;20508;-63
2023/09/07 05:36:32;;;;;;;7.80;6.80;;;17.10;99.90;;;;;;6217079;23;20418;-63
2023/09/07 05:39:01;;;;;;;9.13;8.23;;;17.20;99.90;;;;;;6217045;23;20480;-62
2023/09/07 05:41:28;;;;;;;7.80;7.03;;;17.30;99.90;;;;;;6216652;23;20995;-62
2023/09/07 05:43:54;;;;;;;8.40;7.70;;;17.40;99.90;;;;;;6216724;23;20488;-63
2023/09/07 05:46:21;;;;;;;8.13;7.33;;;17.50;99.90;;;;;;6216887;23;20443;-63
2023/09/07 05:48:47;;;;;;;9.83;7.60;;;17.60;99.90;;;;;;6216932;23;20405;-62
2023/09/07 05:51:14;;;;;;;10.50;7.60;;;17.70;99.90;;;;;;6216982;23;20788;-63
2023/09/07 05:53:40;;;;;;;8.10;7.10;;;17.80;99.90;;;;;;6216510;23;20511;-62
2023/09/07 05:56:08;;;;;;;11.60;7.70;;;17.90;99.90;;;;;;6216834;23;20484;-63
2023/09/07 05:58:34;;;;;;;7.07;6.47;;;18.00;99.90;;;;;;6216863;23;20491;-63
2023/09/07 06:01:01;;;;;;;7.53;6.70;;;18.20;99.90;;;;;;6216764;23;20519;-63
2023/09/07 06:03:28;;;;;;;7.60;6.90;;;18.40;99.90;;;;;;6216834;23;20493;-63
2023/09/07 06:05:54;;;;;;;7.63;6.83;;;18.60;99.90;;;;;;6216486;23;20488;-63
2023/09/07 06:08:21;;;;;;;8.53;7.17;;;18.80;99.90;;;;;;6216321;23;20485;-62
2023/09/07 06:10:47;;;;;;;13.83;8.23;;;18.90;99.90;;;;;;6216704;23;20488;-63
2023/09/07 06:13:15;;;;;;;7.90;7.20;;;19.10;99.90;;;;;;6216412;23;20484;-63
2023/09/07 06:15:42;;;;;;;11.53;8.10;;;19.20;99.90;;;;;;6216641;23;20483;-63
2023/09/07 06:18:08;;;;;;;191.53;35.87;;;19.40;99.90;;;;;;6216721;23;20484;-62
2023/09/07 06:20:35;;;;;;;26.97;13.20;;;19.50;99.90;;;;;;6216598;23;20480;-63
2023/09/07 06:23:02;;;;;;;9.33;7.40;;;19.70;99.90;;;;;;6216576;23;20445;-63
2023/09/07 06:25:27;;;;;;;8.67;7.57;;;19.80;99.90;;;;;;6216200;23;20433;-63
2023/09/07 06:27:54;;;;;;;6.67;6.03;;;19.80;99.90;;;;;;6216266;23;20435;-62
2023/09/07 06:30:21;;;;;;;6.53;5.90;;;19.80;99.90;;;;;;6216522;23;20574;-63
2023/09/07 06:32:51;;;;;;;8.30;6.27;;;20.00;99.90;;;;;;6216472;23;20909;-62
2023/09/07 06:35:18;;;;;;;6.20;5.70;;;20.00;99.90;;;;;;6216386;23;20405;-62
2023/09/07 06:37:44;;;;;;;6.10;5.60;;;20.00;99.90;;;;;;6216445;23;20444;-63
2023/09/07 06:40:11;;;;;;;6.60;6.00;;;20.10;99.90;;;;;;6216347;23;20409;-63
2023/09/07 06:42:38;;;;;;;6.37;5.70;;;20.10;99.90;;;;;;6216233;23;20523;-62
2023/09/07 06:45:05;;;;;;;6.57;5.97;;;20.10;99.90;;;;;;6216359;23;20492;-62
2023/09/07 06:47:33;;;;;;;7.77;6.03;;;20.10;99.90;;;;;;6216400;23;20405;-62
2023/09/07 06:50:00;;;;;;;7.07;6.37;;;20.20;99.90;;;;;;6216257;23;20806;-62
2023/09/07 06:52:26;;;;;;;7.03;6.33;;;20.30;99.90;;;;;;6215997;23;20508;-62
2023/09/07 06:54:54;;;;;;;6.50;5.90;;;20.40;99.90;;;;;;6216359;23;20484;-62
2023/09/07 06:57:21;;;;;;;7.57;6.73;;;20.50;99.90;;;;;;6215546;23;20493;-70
2023/09/07 06:59:48;;;;;;;6.83;5.63;;;20.50;99.90;;;;;;6216276;23;20429;-65
2023/09/07 07:02:14;;;;;;;6.20;5.70;;;20.70;99.90;;;;;;6215792;23;20520;-69
2023/09/07 07:04:43;;;;;;;6.40;5.80;;;20.80;99.90;;;;;;6216168;23;20489;-66
2023/09/07 07:07:10;;;;;;;6.23;5.73;;;21.00;99.90;;;;;;6215992;23;20761;-66
2023/09/07 07:09:37;;;;;;;6.20;5.60;;;21.10;99.90;;;;;;6216037;23;20409;-71
2023/09/07 07:12:04;;;;;;;5.80;5.33;;;21.20;99.90;;;;;;6216109;23;20492;-72
2023/09/07 07:14:31;;;;;;;6.83;6.20;;;21.40;99.90;;;;;;6215961;23;20483;-66
2023/09/07 07:16:57;;;;;;;10.20;6.50;;;21.60;99.90;;;;;;6215918;23;20496;-73
2023/09/07 07:19:24;;;;;;;7.13;5.73;;;21.70;99.90;;;;;;6216052;23;20464;-69
2023/09/07 07:21:52;;;;;;;7.87;5.67;;;21.80;99.90;;;;;;6215793;23;20441;-66
2023/09/07 07:24:19;;;;;;;6.10;5.53;;;21.70;99.90;;;;;;6215625;23;20492;-68
2023/09/07 07:26:46;;;;;;;6.07;5.47;;;21.80;99.90;;;;;;6215988;23;20495;-72
2023/09/07 07:29:25;;;;;;;7.27;5.70;;;21.90;99.90;;;;;;5090336;27;20897;-75
2023/09/07 07:31:52;;;;;;;6.70;6.10;;;21.90;99.90;;;;;;5090350;28;20442;-66
2023/09/07 07:34:18;;;;;;;6.00;5.50;;;22.00;99.90;;;;;;5090242;28;20447;-64
2023/09/07 07:36:45;;;;;;;6.03;5.53;;;22.10;99.90;;;;;;5090399;28;20538;-75
2023/09/07 07:39:11;;;;;;;5.70;5.30;;;22.20;99.90;;;;;;5090313;28;20537;-68
2023/09/07 07:41:38;;;;;;;6.23;5.73;;;22.30;99.90;;;;;;5090298;28;20931;-69
2023/09/07 07:44:04;;;;;;;6.03;5.53;;;22.30;99.90;;;;;;5089893;28;20445;-68
2023/09/07 07:46:32;;;;;;;6.77;6.23;;;22.40;99.90;;;;;;5090069;28;20533;-64
2023/09/07 07:48:59;;;;;;;5.60;5.10;;;22.50;99.90;;;;;;5090004;28;21023;-66
2023/09/07 07:51:26;;;;;;;5.43;5.03;;;22.50;99.90;;;;;;5089976;28;20446;-68
2023/09/07 07:53:54;;;;;;;6.33;5.93;;;22.50;99.90;;;;;;5089839;28;20451;-73
2023/09/07 07:56:20;;;;;;;7.43;6.10;;;22.60;99.90;;;;;;5090006;28;20533;-68
2023/09/07 07:58:47;;;;;;;7.07;5.33;;;22.70;99.90;;;;;;5089719;28;20937;-67
2023/09/07 08:01:14;;;;;;;6.40;5.80;;;22.70;99.90;;;;;;5089722;28;20834;-68
2023/09/07 08:03:42;;;;;;;6.00;5.50;;;22.70;99.90;;;;;;5089872;28;20538;-66
2023/09/07 08:06:09;;;;;;;7.63;5.50;;;22.80;99.90;;;;;;5089726;28;20451;-67
2023/09/07 08:08:35;;;;;;;5.90;5.40;;;23.00;99.90;;;;;;5089516;28;20510;-67
2023/09/07 08:11:05;;;;;;;5.57;5.03;;;23.00;99.90;;;;;;5089645;28;20455;-67
2023/09/07 08:13:32;;;;;;;5.83;5.03;;;23.20;99.90;;;;;;5089556;28;20533;-63
2023/09/07 08:15:59;;;;;;;16.93;6.20;;;23.30;99.90;;;;;;5089347;28;20883;-63
2023/09/07 08:18:25;;;;;;;10.70;5.10;;;23.40;99.90;;;;;;5089533;28;20804;-67
2023/09/07 08:20:54;;;;;;;6.20;5.60;;;23.40;99.90;;;;;;5089477;28;20534;-70
2023/09/07 08:23:21;;;;;;;7.80;5.23;;;23.50;99.90;;;;;;5089459;28;20447;-67
2023/09/07 08:25:47;;;;;;;5.77;5.27;;;23.60;99.90;;;;;;5089225;28;20964;-68
2023/09/07 08:28:15;;;;;;;10.20;5.10;;;23.70;99.90;;;;;;5089007;28;20923;-62
2023/09/07 08:30:42;;;;;;;5.40;4.90;;;23.70;99.90;;;;;;5089168;28;20446;-75
2023/09/07 08:33:09;;;;;;;4.67;4.37;;;23.80;99.90;;;;;;5089172;28;20542;-69
2023/09/07 08:35:37;;;;;;;5.10;4.70;;;24.00;99.90;;;;;;5089248;28;20689;-73
2023/09/07 08:38:08;;;;;;;5.10;4.70;;;24.10;99.90;;;;;;5088967;28;20999;-70
2023/09/07 08:40:35;;;;;;;4.90;4.50;;;24.10;99.90;;;;;;5076354;28;20505;-73
2023/09/07 08:43:04;;;;;;;6.37;5.77;;;24.20;99.90;;;;;;5075277;28;20447;-63
2023/09/07 08:45:33;;;;;;;7.80;5.20;;;24.30;99.90;;;;;;5075601;28;20538;-65
2023/09/07 08:48:00;;;;;;;5.57;4.77;;;24.50;99.90;;;;;;5075492;28;20471;-64
2023/09/07 08:50:28;;;;;;;5.50;4.90;;;24.60;99.90;;;;;;5075383;28;20873;-68
2023/09/07 08:52:55;;;;;;;5.00;4.60;;;24.70;99.90;;;;;;5075229;28;20450;-68
2023/09/07 08:55:24;;;;;;;6.40;5.23;;;24.70;99.90;;;;;;5075185;28;20478;-70
2023/09/07 08:57:50;;;;;;;5.27;4.87;;;24.70;99.90;;;;;;5075308;28;20538;-72
2023/09/07 09:00:18;;;;;;;5.57;4.70;;;24.80;99.90;;;;;;5075436;28;21038;-64
2023/09/07 09:02:47;;;;;;;4.80;4.10;;;24.90;99.90;;;;;;5075186;28;20581;-69
2023/09/07 09:05:15;;;;;;;5.90;5.13;;;25.00;99.90;;;;;;5075204;28;20448;-68
2023/09/07 09:07:42;;;;;;;5.03;4.63;;;25.10;99.90;;;;;;5074933;28;20566;-67
2023/09/07 09:10:09;;;;;;;5.57;5.13;;;25.10;99.90;;;;;;5074931;28;20919;-72
2023/09/07 09:12:46;;;;;;;5.23;4.83;;;25.20;99.90;;;;;;5074752;28;20878;-71
2023/09/07 09:15:12;;;;;;;5.43;4.90;;;25.20;99.90;;;;;;5075077;28;20450;-72
2023/09/07 09:17:39;;;;;;;4.97;4.47;;;25.30;99.90;;;;;;5074785;28;20535;-68
2023/09/07 09:20:20;;;;;;;12.40;11.40;;;25.40;99.90;;;;;;5074584;28;20880;-70
2023/09/07 09:22:46;;;;;;;6.10;5.27;;;25.60;99.90;;;;;;5074840;28;20450;-67
2023/09/07 09:25:13;;;;;;;4.87;4.47;;;25.70;99.90;;;;;;5074778;28;20439;-72
2023/09/07 09:27:41;;;;;;;4.90;4.40;;;25.70;99.90;;;;;;5074242;28;21045;-70
2023/09/07 09:30:08;;;;;;;6.07;4.37;;;25.60;99.90;;;;;;5074721;28;20453;-70
2023/09/07 09:32:35;;;;;;;5.07;4.67;;;25.60;99.90;;;;;;5074658;28;20446;-70
2023/09/07 09:35:05;;;;;;;5.30;4.80;;;25.80;99.90;;;;;;5074483;28;20629;-70
2023/09/07 09:37:32;;;;;;;5.40;4.90;;;25.90;99.90;;;;;;5074672;28;20486;-71
2023/09/07 09:40:01;;;;;;;4.40;4.10;;;26.00;99.90;;;;;;5074629;28;20443;-71
2023/09/07 09:42:28;;;;;;;6.00;4.70;;;26.20;99.90;;;;;;5074500;28;20439;-71
2023/09/07 09:44:57;;;;;;;5.67;4.30;;;26.10;99.90;;;;;;5074355;28;20467;-70
2023/09/07 09:47:25;;;;;;;4.63;4.33;;;26.00;99.90;;;;;;5074401;28;20439;-69
2023/09/07 09:49:52;;;;;;;4.33;4.07;;;26.20;99.90;;;;;;5074053;28;20558;-70
2023/09/07 09:52:20;;;;;;;6.40;4.00;;;26.30;99.90;;;;;;5072872;28;20881;-70
2023/09/07 09:54:47;;;;;;;4.50;4.10;;;26.30;99.90;;;;;;5073198;28;20452;-70
2023/09/07 09:57:15;;;;;;;5.07;4.03;;;26.40;99.90;;;;;;5073843;28;21013;-70
2023/09/07 09:59:43;;;;;;;4.63;4.20;;;26.50;99.90;;;;;;5073567;28;20860;-68
2023/09/07 10:02:12;;;;;;;4.53;4.17;;;26.50;99.90;;;;;;5074118;28;20934;-72
2023/09/07 10:04:39;;;;;;;7.00;4.27;;;26.60;99.90;;;;;;5074024;28;20555;-63
2023/09/07 10:07:06;;;;;;;5.20;4.80;;;26.70;99.90;;;;;;5074222;28;20486;-73
2023/09/07 10:09:34;;;;;;;6.70;4.50;;;26.80;99.90;;;;;;5073791;28;20514;-67
2023/09/07 10:12:04;;;;;;;4.40;4.10;;;26.80;99.90;;;;;;5073706;28;20443;-65
2023/09/07 10:14:39;;;;;;;4.17;3.77;;;26.90;99.90;;;;;;5073778;28;20454;-71
2023/09/07 10:17:05;;;;;;;4.73;4.33;;;26.80;99.90;;;;;;5073954;28;20802;-67
2023/09/07 10:19:33;;;;;;;5.63;4.43;;;26.90;99.90;;;;;;5073811;28;20443;-69
2023/09/07 10:22:00;;;;;;;5.00;4.50;;;27.00;99.90;;;;;;5073715;28;20446;-71
2023/09/07 10:24:27;;;;;;;4.27;3.97;;;27.10;99.90;;;;;;5073493;28;20530;-69
2023/09/07 10:27:02;;;;;;;5.63;4.10;;;27.10;99.90;;;;;;5073578;28;20992;-72
2023/09/07 10:29:28;;;;;;;4.77;3.80;;;27.10;99.90;;;;;;5073308;28;20501;-71
2023/09/07 10:31:56;;;;;;;4.43;4.13;;;27.10;99.90;;;;;;5073201;28;20538;-72
2023/09/07 10:34:24;;;;;;;3.90;3.60;;;27.20;99.90;;;;;;5073390;28;20447;-70
2023/09/07 10:36:57;;;;;;;4.00;3.70;;;27.40;99.90;;;;;;5073337;28;20444;-69
2023/09/07 10:39:24;;;;;;;4.63;4.20;;;27.50;99.90;;;;;;5073320;28;20538;-68
2023/09/07 10:41:50;;;;;;;4.37;3.90;;;27.30;99.90;;;;;;5073238;28;20471;-73
2023/09/07 10:44:26;;;;;;;4.30;3.90;;;27.40;99.90;;;;;;5073230;28;20489;-73
2023/09/07 10:46:52;;;;;;;5.67;3.50;;;27.30;99.50;;;;;;5073247;28;20550;-72
2023/09/07 10:49:19;;;;;;;4.53;4.10;;;27.40;99.90;;;;;;5073167;28;20482;-74
2023/09/07 10:51:47;;;;;;;3.90;3.60;;;27.20;99.20;;;;;;5073173;28;20554;-68
2023/09/07 10:54:16;;;;;;;5.03;4.50;;;27.30;99.20;;;;;;5072825;28;20443;-70
2023/09/07 10:56:45;;;;;;;4.10;3.80;;;27.40;99.90;;;;;;5073327;28;20880;-72
2023/09/07 10:59:12;;;;;;;4.20;3.77;;;27.40;99.60;;;;;;5073266;28;20443;-69
2023/09/07 11:01:38;;;;;;;3.60;3.40;;;27.40;98.80;;;;;;5072984;28;20483;-73
2023/09/07 11:04:08;;;;;;;4.10;3.80;;;27.50;99.40;;;;;;5072663;28;20447;-70
2023/09/07 11:06:34;;;;;;;4.10;3.70;;;27.70;98.50;;;;;;5073078;28;20448;-66
2023/09/07 11:09:01;;;;;;;4.67;4.00;;;27.70;98.00;;;;;;5072865;28;20479;-71
2023/09/07 11:11:29;;;;;;;4.13;3.60;;;27.80;97.40;;;;;;5073090;28;20612;-68
2023/09/07 11:13:58;;;;;;;3.93;3.63;;;27.80;97.10;;;;;;5073094;28;20454;-67
2023/09/07 11:16:26;;;;;;;3.93;3.53;;;27.80;97.00;;;;;;5072632;28;20534;-67
2023/09/07 11:18:54;;;;;;;5.37;4.33;;;28.00;98.20;;;;;;5072923;28;20516;-67
2023/09/07 11:21:20;;;;;;;4.10;3.80;;;28.10;96.80;;;;;;5072906;28;20493;-67
2023/09/07 11:23:47;;;;;;;4.47;4.17;;;28.00;96.60;;;;;;5073025;28;20455;-67
2023/09/07 11:26:16;;;;;;;6.33;4.73;;;28.00;96.80;;;;;;5073048;28;20526;-67
2023/09/07 11:28:46;;;;;;;4.43;4.03;;;28.00;97.30;;;;;;5073021;28;20823;-68
2023/09/07 11:31:13;;;;;;;4.10;3.80;;;28.10;97.80;;;;;;5072842;28;20526;-68
2023/09/07 11:33:41;;;;;;;5.07;4.20;;;28.30;96.90;;;;;;5072715;28;20440;-66
2023/09/07 11:36:08;;;;;;;5.40;4.80;;;28.20;96.60;;;;;;5072664;28;20838;-65
2023/09/07 11:38:37;;;;;;;5.57;5.17;;;28.10;97.60;;;;;;5072836;28;20448;-67
2023/09/07 11:41:04;;;;;;;5.30;4.13;;;28.30;97.80;;;;;;5073000;28;20447;-66
2023/09/07 11:43:31;;;;;;;4.87;4.47;;;28.40;96.90;;;;;;5072675;28;20837;-66
2023/09/07 11:45:58;;;;;;;5.43;4.50;;;28.50;97.50;;;;;;5072664;28;20440;-65
2023/09/07 11:48:25;;;;;;;5.10;4.67;;;28.60;97.50;;;;;;5072384;28;20448;-66
2023/09/07 11:50:51;;;;;;;4.80;4.40;;;28.50;96.20;;;;;;5072735;28;20534;-66
2023/09/07 11:53:18;;;;;;;4.87;4.40;;;28.40;97.20;;;;;;5072511;28;20479;-67
2023/09/07 11:55:45;;;;;;;4.00;3.80;;;28.50;96.20;;;;;;5072994;28;20445;-66
2023/09/07 11:58:11;;;;;;;5.50;5.00;;;28.70;96.30;;;;;;5072536;28;20478;-66
2023/09/07 12:00:38;;;;;;;5.60;4.50;;;28.70;95.80;;;;;;5072444;28;20543;-66
2023/09/07 12:03:06;;;;;;;3.80;3.50;;;28.80;95.40;;;;;;5072070;28;20542;-66
2023/09/07 12:05:32;;;;;;;6.20;4.60;;;28.90;94.30;;;;;;5072652;28;20530;-65
2023/09/07 12:07:59;;;;;;;5.03;4.73;;;29.00;94.50;;;;;;5072512;28;20478;-65
2023/09/07 12:10:25;;;;;;;5.93;3.93;;;28.90;94.20;;;;;;5072458;28;20511;-65
2023/09/07 12:12:52;;;;;;;4.90;4.20;;;29.00;93.50;;;;;;5072426;28;20539;-65
2023/09/07 12:15:18;;;;;;;4.17;3.87;;;28.80;92.20;;;;;;5074670;28;20449;-66
2023/09/07 12:17:45;;;;;;;4.57;4.27;;;28.80;93.20;;;;;;5076178;28;20439;-65
2023/09/07 12:20:14;;;;;;;6.20;3.70;;;28.80;93.10;;;;;;5076157;28;20450;-66
2023/09/07 12:22:40;;;;;;;4.63;4.17;;;28.90;93.30;;;;;;5076125;28;20443;-65
2023/09/07 12:25:10;;;;;;;6.33;4.17;;;28.90;91.70;;;;;;5076030;28;20444;-66
2023/09/07 12:27:37;;;;;;;4.80;3.03;;;28.80;91.30;;;;;;5075607;28;20475;-66
2023/09/07 12:30:08;;;;;;;5.73;3.73;;;28.70;90.40;;;;;;5075649;28;21079;-66
2023/09/07 12:32:34;;;;;;;5.87;4.07;;;28.60;91.30;;;;;;5076073;28;20448;-66
2023/09/07 12:35:01;;;;;;;3.70;3.40;;;28.60;91.40;;;;;;5075812;28;20883;-66
2023/09/07 12:37:29;;;;;;;3.70;3.47;;;28.60;90.20;;;;;;5075901;28;20610;-66
2023/09/07 12:39:55;;;;;;;3.17;2.97;;;28.70;89.70;;;;;;5075563;28;20538;-66
2023/09/07 12:42:22;;;;;;;3.47;3.17;;;28.80;88.90;;;;;;5075608;28;20538;-66
2023/09/07 12:44:49;;;;;;;4.10;3.70;;;29.00;89.90;;;;;;5075726;28;20490;-65